Time;durP1;ratioP1;P1;durP2;ratioP2;P2;SDS_P1;SDS_P2;PMS_P1;PMS_P2;Temp;Humidity;BMP_temperature;BMP_pressure;BME280_temperature;BME280_humidity;BME280_pressure;Samples;Min_cycle;Max_cycle;Signal;HPM_P1;HPM_P2
2023/07/17 00:00:47;;;;;;;4.22;3.08;;;;;;;;;;2545727;23;20009;-95
2023/07/17 00:01:50;;;;;;;3.38;2.95;;;;;;;;;;2545902;23;20118;-94
2023/07/17 00:02:51;;;;;;;5.30;3.53;;;;;;;;;;2546494;23;19997;-95
2023/07/17 00:03:51;;;;;;;3.47;3.17;;;;;;;;;;2562006;23;20132;-95
2023/07/17 00:04:52;;;;;;;7.00;3.30;;;;;;;;;;2557749;23;20437;-95
2023/07/17 00:05:52;;;;;;;5.82;3.63;;;;;;;;;;2557683;23;20032;-95
2023/07/17 00:07:10;;;;;;;6.15;3.15;;;;;;;;;;2574481;23;20440;-94
2023/07/17 00:08:13;;;;;;;5.63;3.83;;;;;;;;;;2557633;23;20016;-95
2023/07/17 00:14:02;;;;;;;4.95;3.53;;;;;;;;;;2586094;23;19996;-96
2023/07/17 00:15:19;;;;;;;4.47;3.30;;;;;;;;;;2553341;23;20001;-95
2023/07/17 00:16:20;;;;;;;5.57;3.55;;;;;;;;;;2545598;23;19997;-95
2023/07/17 00:17:26;;;;;;;6.85;3.30;;;;;;;;;;2567393;23;19996;-95
2023/07/17 00:19:28;;;;;;;4.72;3.30;;;;;;;;;;2565956;23;20019;-96
2023/07/17 00:24:22;;;;;;;5.07;3.20;;;;;;;;;;2524990;23;20003;-95
2023/07/17 00:25:25;;;;;;;4.57;3.05;;;;;;;;;;2520868;23;20002;-95
2023/07/17 00:26:25;;;;;;;4.45;3.13;;;;;;;;;;2521114;23;20014;-96
2023/07/17 00:27:26;;;;;;;4.20;3.20;;;;;;;;;;2524663;23;20026;-95
2023/07/17 00:28:29;;;;;;;4.80;3.20;;;;;;;;;;2520629;23;20127;-96
2023/07/17 00:29:30;;;;;;;5.38;3.58;;;;;;;;;;2569570;23;19999;-95
2023/07/17 00:30:30;;;;;;;4.35;3.30;;;;;;;;;;2545127;23;20378;-96
2023/07/17 00:31:31;;;;;;;6.07;3.38;;;;;;;;;;2545278;23;20045;-95
2023/07/17 00:32:31;;;;;;;3.70;3.20;;;;;;;;;;2545285;23;19997;-95
2023/07/17 00:33:32;;;;;;;4.00;3.10;;;;;;;;;;2545247;23;20088;-96
2023/07/17 00:34:32;;;;;;;5.68;3.50;;;;;;;;;;2557619;23;20103;-95
2023/07/17 00:35:35;;;;;;;4.32;3.28;;;;;;;;;;2557499;23;20020;-96
2023/07/17 00:36:36;;;;;;;4.10;3.40;;;;;;;;;;2557508;23;20001;-95
2023/07/17 00:37:36;;;;;;;5.82;3.33;;;;;;;;;;2557739;23;20028;-94
2023/07/17 00:38:37;;;;;;;6.43;3.90;;;;;;;;;;2545321;23;20409;-96
2023/07/17 00:39:38;;;;;;;5.45;3.38;;;;;;;;;;2569750;23;20374;-95
2023/07/17 00:40:41;;;;;;;5.35;3.30;;;;;;;;;;2557464;23;20394;-96
2023/07/17 00:41:42;;;;;;;4.30;3.28;;;;;;;;;;2545661;23;20342;-96
2023/07/17 00:42:44;;;;;;;4.53;3.30;;;;;;;;;;2557563;23;20001;-96
2023/07/17 00:43:45;;;;;;;4.90;3.17;;;;;;;;;;2558015;23;20001;-96
2023/07/17 00:47:47;;;;;;;4.88;3.80;;;;;;;;;;2561839;23;19932;-94
2023/07/17 00:48:49;;;;;;;4.15;3.65;;;;;;;;;;2560889;23;20001;-90
2023/07/17 00:49:52;;;;;;;4.70;3.13;;;;;;;;;;2557749;23;20031;-95
2023/07/17 00:50:53;;;;;;;4.68;3.20;;;;;;;;;;2557509;23;20137;-94
2023/07/17 00:51:59;;;;;;;4.05;3.22;;;;;;;;;;2545275;23;20518;-95
2023/07/17 00:53:07;;;;;;;6.68;3.72;;;;;;;;;;2546436;23;20001;-93
2023/07/17 00:54:08;;;;;;;6.38;3.33;;;;;;;;;;2551484;23;20008;-93
2023/07/17 00:55:09;;;;;;;5.10;3.60;;;;;;;;;;2545998;23;20024;-93
2023/07/17 00:56:10;;;;;;;4.43;3.45;;;;;;;;;;2546795;23;19997;-93
2023/07/17 00:57:14;;;;;;;4.60;3.47;;;;;;;;;;2545483;23;20466;-95
2023/07/17 00:58:14;;;;;;;4.82;3.33;;;;;;;;;;2546236;23;20001;-94
2023/07/17 00:59:16;;;;;;;4.82;3.72;;;;;;;;;;2546548;23;20458;-93
2023/07/17 01:00:18;;;;;;;7.13;3.50;;;;;;;;;;2549008;23;20036;-93
2023/07/17 01:01:19;;;;;;;4.18;3.28;;;;;;;;;;2545593;23;20080;-94
2023/07/17 01:02:21;;;;;;;6.28;3.70;;;;;;;;;;2557029;23;20000;-94
2023/07/17 01:03:22;;;;;;;4.22;3.47;;;;;;;;;;2545339;23;19990;-94
2023/07/17 01:04:22;;;;;;;6.50;3.90;;;;;;;;;;2545380;23;20020;-94
2023/07/17 01:05:23;;;;;;;6.30;3.83;;;;;;;;;;2557336;23;20413;-95
2023/07/17 01:06:26;;;;;;;5.13;3.53;;;;;;;;;;2544912;23;20029;-94
2023/07/17 01:07:27;;;;;;;3.85;3.40;;;;;;;;;;2127012;23;10099633;-93
2023/07/17 01:08:30;;;;;;;4.15;3.60;;;;;;;;;;2557647;23;19993;-95
2023/07/17 01:09:31;;;;;;;4.25;3.42;;;;;;;;;;2557799;23;19997;-94
2023/07/17 01:10:31;;;;;;;5.90;3.78;;;;;;;;;;2557535;23;20048;-94
2023/07/17 01:12:00;;;;;;;4.82;3.72;;;;;;;;;;2557907;23;20000;-94
2023/07/17 01:13:04;;;;;;;5.10;3.50;;;;;;;;;;2557530;23;20069;-95
2023/07/17 01:14:04;;;;;;;4.15;3.70;;;;;;;;;;2545516;23;20002;-94
2023/07/17 01:15:06;;;;;;;5.55;3.60;;;;;;;;;;2557400;23;20426;-93
2023/07/17 01:16:09;;;;;;;4.22;3.60;;;;;;;;;;2557093;23;20099;-93
2023/07/17 01:17:09;;;;;;;5.70;3.45;;;;;;;;;;2557702;23;20001;-93
2023/07/17 01:18:10;;;;;;;7.93;3.85;;;;;;;;;;2557453;23;20056;-94
2023/07/17 01:19:10;;;;;;;6.35;3.70;;;;;;;;;;2545308;23;20439;-95
2023/07/17 01:20:13;;;;;;;5.72;3.22;;;;;;;;;;2545074;23;19993;-93
2023/07/17 01:21:20;;;;;;;4.45;3.45;;;;;;;;;;2557459;23;19997;-96
2023/07/17 01:22:29;;;;;;;4.85;3.50;;;;;;;;;;2546362;23;20005;-94
2023/07/17 01:23:33;;;;;;;4.80;3.30;;;;;;;;;;2117198;23;10310148;-93
2023/07/17 01:24:33;;;;;;;8.38;3.83;;;;;;;;;;2545624;23;20021;-94
2023/07/17 01:25:34;;;;;;;6.05;3.83;;;;;;;;;;2545136;23;19994;-93
2023/07/17 01:26:36;;;;;;;7.57;3.70;;;;;;;;;;2545171;23;20060;-95
2023/07/17 01:27:39;;;;;;;6.95;3.65;;;;;;;;;;2545415;23;20011;-95
2023/07/17 01:28:44;;;;;;;5.32;3.83;;;;;;;;;;2561552;23;20060;-96
2023/07/17 01:29:45;;;;;;;6.53;3.10;;;;;;;;;;2557452;23;19997;-96
2023/07/17 01:30:45;;;;;;;5.78;3.70;;;;;;;;;;2545033;23;20001;-96
2023/07/17 01:31:46;;;;;;;4.03;3.63;;;;;;;;;;2557232;23;20422;-96
2023/07/17 01:32:49;;;;;;;4.72;3.30;;;;;;;;;;2557286;23;19997;-95
2023/07/17 01:33:49;;;;;;;4.85;3.80;;;;;;;;;;2569327;23;20506;-94
2023/07/17 01:34:52;;;;;;;;;;;;;;;;;;2109785;23;10257056;-95
2023/07/17 01:35:53;;;;;;;4.95;3.38;;;;;;;;;;2545506;23;19916;-96
2023/07/17 01:36:53;;;;;;;6.47;3.78;;;;;;;;;;2544905;23;20490;-96
2023/07/17 01:37:56;;;;;;;4.40;3.25;;;;;;;;;;2544932;23;20056;-96
2023/07/17 01:38:57;;;;;;;4.63;3.95;;;;;;;;;;2557833;23;20001;-95
2023/07/17 01:39:57;;;;;;;5.43;3.47;;;;;;;;;;2557423;23;20108;-95
2023/07/17 01:40:58;;;;;;;5.07;3.92;;;;;;;;;;2544797;23;20020;-95
2023/07/17 01:41:58;;;;;;;6.20;3.92;;;;;;;;;;2557399;23;20000;-95
2023/07/17 01:42:59;;;;;;;3.88;3.47;;;;;;;;;;2557224;23;20394;-95
2023/07/17 01:44:09;;;;;;;6.78;3.55;;;;;;;;;;2558460;23;20509;-95
2023/07/17 01:45:09;;;;;;;5.03;3.40;;;;;;;;;;2557335;23;19997;-95
2023/07/17 01:46:10;;;;;;;5.30;3.60;;;;;;;;;;2545322;23;20012;-93
2023/07/17 01:50:55;;;;;;;5.85;3.47;;;;;;;;;;2562294;23;20064;-94
2023/07/17 01:51:55;;;;;;;6.25;3.65;;;;;;;;;;2561451;23;19993;-95
2023/07/17 01:53:04;;;;;;;5.68;3.58;;;;;;;;;;2544787;23;20005;-95
2023/07/17 01:54:04;;;;;;;6.82;3.90;;;;;;;;;;2546559;23;20007;-95
2023/07/17 01:55:05;;;;;;;9.65;4.68;;;;;;;;;;2545041;23;19997;-95
2023/07/17 01:56:06;;;;;;;3.78;3.40;;;;;;;;;;2557543;23;20464;-94
2023/07/17 01:57:06;;;;;;;5.25;3.60;;;;;;;;;;2557274;23;20005;-95
2023/07/17 01:58:10;;;;;;;5.32;3.42;;;;;;;;;;2544663;23;20017;-96
2023/07/17 01:59:11;;;;;;;5.82;3.95;;;;;;;;;;2545460;23;20003;-95
2023/07/17 02:00:12;;;;;;;6.20;3.50;;;;;;;;;;2545312;23;20004;-96
2023/07/17 02:01:15;;;;;;;5.18;3.95;;;;;;;;;;2545098;23;20021;-96
2023/07/17 02:02:15;;;;;;;4.20;3.38;;;;;;;;;;2545585;23;20028;-94
2023/07/17 02:05:14;;;;;;;5.28;3.78;;;;;;;;;;2551247;23;20009;-95
2023/07/17 02:06:17;;;;;;;4.55;3.65;;;;;;;;;;2544617;23;20080;-96
2023/07/17 02:07:17;;;;;;;5.18;3.67;;;;;;;;;;2533300;23;19998;-96
2023/07/17 02:08:18;;;;;;;6.13;3.92;;;;;;;;;;2532758;23;20001;-96
2023/07/17 02:09:21;;;;;;;4.38;3.40;;;;;;;;;;2545314;23;19989;-96
2023/07/17 02:10:21;;;;;;;3.80;3.47;;;;;;;;;;2545126;23;19990;-96
2023/07/17 02:11:27;;;;;;;4.80;3.80;;;;;;;;;;2532735;23;19994;-95
2023/07/17 02:12:31;;;;;;;5.50;3.60;;;;;;;;;;2550202;23;20064;-96
2023/07/17 02:13:32;;;;;;;3.90;3.33;;;;;;;;;;2544913;23;19990;-95
2023/07/17 02:14:32;;;;;;;8.10;3.30;;;;;;;;;;2533097;23;20466;-95
2023/07/17 02:15:33;;;;;;;4.38;3.70;;;;;;;;;;2532378;23;20489;-96
2023/07/17 02:16:33;;;;;;;5.95;4.38;;;;;;;;;;2532911;23;20415;-95
2023/07/17 02:17:36;;;;;;;5.80;3.88;;;;;;;;;;2548876;23;20105;-96
2023/07/17 02:18:37;;;;;;;8.50;3.50;;;;;;;;;;2545382;23;20390;-95
2023/07/17 02:19:40;;;;;;;5.20;4.30;;;;;;;;;;2532981;23;20049;-95
2023/07/17 02:20:42;;;;;;;4.57;4.00;;;;;;;;;;2545507;23;20005;-96
2023/07/17 02:21:43;;;;;;;4.07;3.67;;;;;;;;;;2545109;23;20002;-96
2023/07/17 02:22:43;;;;;;;5.78;3.72;;;;;;;;;;2545095;23;20388;-95
2023/07/17 02:23:44;;;;;;;4.30;3.90;;;;;;;;;;2532601;23;20514;-96
2023/07/17 02:24:44;;;;;;;5.25;4.00;;;;;;;;;;2533235;23;19994;-96
2023/07/17 02:25:50;;;;;;;4.03;3.63;;;;;;;;;;2544905;23;19993;-95
2023/07/17 02:26:53;;;;;;;6.28;4.10;;;;;;;;;;2545256;23;20060;-95
2023/07/17 02:28:03;;;;;;;5.47;4.22;;;;;;;;;;2545058;23;20509;-95
2023/07/17 02:29:04;;;;;;;4.47;3.72;;;;;;;;;;2534817;23;19994;-96
2023/07/17 02:30:05;;;;;;;4.57;3.65;;;;;;;;;;2532609;23;20444;-96
2023/07/17 02:31:05;;;;;;;4.35;3.50;;;;;;;;;;2549380;23;20310;-96
2023/07/17 02:32:06;;;;;;;4.57;3.63;;;;;;;;;;2562139;23;19993;-95
2023/07/17 02:33:09;;;;;;;5.07;4.00;;;;;;;;;;2545019;23;20005;-94
2023/07/17 02:34:12;;;;;;;5.07;3.67;;;;;;;;;;2547531;23;20457;-94
2023/07/17 02:35:16;;;;;;;5.90;4.07;;;;;;;;;;2533188;23;20032;-96
2023/07/17 02:36:16;;;;;;;6.13;4.00;;;;;;;;;;2533058;23;20440;-95
2023/07/17 02:37:17;;;;;;;6.43;4.40;;;;;;;;;;2532426;23;20033;-95
2023/07/17 02:38:20;;;;;;;4.60;3.63;;;;;;;;;;2532266;23;20047;-96
2023/07/17 02:39:23;;;;;;;5.53;3.88;;;;;;;;;;2533242;23;20002;-96
2023/07/17 02:40:28;;;;;;;5.95;3.90;;;;;;;;;;2549561;23;19994;-96
2023/07/17 02:41:29;;;;;;;5.60;4.45;;;;;;;;;;2549487;23;20004;-95
2023/07/17 02:42:29;;;;;;;5.10;3.92;;;;;;;;;;2533272;23;20021;-96
2023/07/17 02:43:30;;;;;;;5.65;4.15;;;;;;;;;;2532967;23;20049;-94
2023/07/17 02:44:36;;;;;;;4.65;4.07;;;;;;;;;;2533497;23;20431;-94
2023/07/17 02:45:37;;;;;;;6.95;4.07;;;;;;;;;;2547071;23;20009;-95
2023/07/17 02:46:38;;;;;;;4.57;3.90;;;;;;;;;;2533863;23;20132;-95
2023/07/17 02:47:38;;;;;;;4.50;3.58;;;;;;;;;;2544956;23;20450;-96
2023/07/17 02:48:42;;;;;;;4.13;3.35;;;;;;;;;;2544770;23;20526;-95
2023/07/17 02:49:44;;;;;;;5.70;4.13;;;;;;;;;;2533472;23;20002;-96
2023/07/17 02:50:44;;;;;;;5.55;3.90;;;;;;;;;;2532758;23;20005;-96
2023/07/17 02:51:45;;;;;;;6.05;4.18;;;;;;;;;;2545109;23;20070;-95
2023/07/17 02:52:45;;;;;;;5.15;4.05;;;;;;;;;;2545010;23;19997;-96
2023/07/17 02:53:46;;;;;;;4.97;4.30;;;;;;;;;;2545241;23;20024;-95
2023/07/17 02:54:53;;;;;;;5.93;4.00;;;;;;;;;;2544879;23;19993;-94
2023/07/17 02:56:02;;;;;;;4.40;4.00;;;;;;;;;;2557374;23;20076;-95
2023/07/17 02:57:06;;;;;;;7.03;4.35;;;;;;;;;;2544838;23;20415;-95
2023/07/17 02:58:07;;;;;;;5.28;4.00;;;;;;;;;;2533492;23;20436;-95
2023/07/17 02:59:10;;;;;;;6.65;4.07;;;;;;;;;;2532419;23;19998;-95
2023/07/17 03:00:14;;;;;;;6.05;3.97;;;;;;;;;;2545587;23;20001;-96
2023/07/17 03:01:15;;;;;;;5.55;4.05;;;;;;;;;;2545601;23;20435;-95
2023/07/17 03:02:16;;;;;;;4.72;3.83;;;;;;;;;;2545309;23;20001;-96
2023/07/17 03:03:16;;;;;;;5.82;4.28;;;;;;;;;;2535138;23;20072;-96
2023/07/17 03:04:17;;;;;;;4.18;3.75;;;;;;;;;;2536496;23;19994;-95
2023/07/17 03:05:18;;;;;;;6.45;4.28;;;;;;;;;;2548671;23;20069;-95
2023/07/17 03:06:18;;;;;;;6.28;4.30;;;;;;;;;;2536410;23;20060;-95
2023/07/17 03:07:19;;;;;;;4.47;4.07;;;;;;;;;;2544851;23;19997;-96
2023/07/17 03:08:19;;;;;;;4.75;3.90;;;;;;;;;;2545269;23;20060;-95
2023/07/17 03:09:20;;;;;;;7.45;4.40;;;;;;;;;;2532747;23;20523;-95
2023/07/17 03:10:21;;;;;;;4.47;4.03;;;;;;;;;;2533221;23;20001;-94
2023/07/17 03:11:22;;;;;;;6.72;4.82;;;;;;;;;;2533335;23;20004;-95
2023/07/17 03:12:24;;;;;;;6.70;4.40;;;;;;;;;;2545558;23;20470;-94
2023/07/17 03:13:27;;;;;;;6.13;4.43;;;;;;;;;;2533286;23;19998;-95
2023/07/17 03:14:28;;;;;;;6.55;4.40;;;;;;;;;;2532923;23;20002;-94
2023/07/17 03:15:29;;;;;;;7.18;4.97;;;;;;;;;;2532395;23;20073;-95
2023/07/17 03:16:30;;;;;;;6.30;4.10;;;;;;;;;;2532748;23;19998;-95
2023/07/17 03:17:36;;;;;;;7.13;4.47;;;;;;;;;;2532656;23;20018;-96
2023/07/17 03:18:36;;;;;;;5.47;4.45;;;;;;;;;;2536752;23;20022;-95
2023/07/17 03:19:37;;;;;;;6.18;5.07;;;;;;;;;;2532923;23;20021;-94
2023/07/17 03:20:43;;;;;;;4.70;4.25;;;;;;;;;;2535629;23;19998;-92
2023/07/17 03:21:45;;;;;;;5.95;4.30;;;;;;;;;;2532984;23;20061;-94
2023/07/17 03:22:46;;;;;;;6.53;4.20;;;;;;;;;;2544579;23;19998;-95
2023/07/17 03:23:47;;;;;;;6.50;4.60;;;;;;;;;;2544878;23;19997;-93
2023/07/17 03:24:48;;;;;;;8.23;4.90;;;;;;;;;;2544776;23;20077;-94
2023/07/17 03:25:48;;;;;;;6.03;4.53;;;;;;;;;;2532310;23;19998;-95
2023/07/17 03:26:48;;;;;;;6.72;4.60;;;;;;;;;;2544919;23;20108;-95
2023/07/17 03:27:54;;;;;;;6.47;4.50;;;;;;;;;;2557059;23;19996;-95
2023/07/17 03:28:57;;;;;;;7.82;4.00;;;;;;;;;;2544792;23;20465;-95
2023/07/17 03:29:57;;;;;;;6.55;4.68;;;;;;;;;;2533062;23;20002;-94
2023/07/17 03:30:58;;;;;;;6.20;4.30;;;;;;;;;;2532493;23;20058;-94
2023/07/17 03:31:58;;;;;;;7.65;4.57;;;;;;;;;;2549188;23;19994;-95
2023/07/17 03:33:02;;;;;;;8.18;4.00;;;;;;;;;;2544361;23;20005;-94
2023/07/17 03:34:08;;;;;;;5.78;4.57;;;;;;;;;;2549512;23;20001;-94
2023/07/17 03:35:08;;;;;;;7.18;4.78;;;;;;;;;;2557242;23;19997;-94
2023/07/17 03:36:09;;;;;;;6.25;4.32;;;;;;;;;;2544662;23;20013;-94
2023/07/17 03:37:10;;;;;;;8.70;4.65;;;;;;;;;;2544651;23;20001;-94
2023/07/17 03:38:10;;;;;;;8.90;4.70;;;;;;;;;;2532653;23;20536;-94
2023/07/17 03:39:16;;;;;;;7.97;5.03;;;;;;;;;;2532458;23;20009;-95
2023/07/17 03:40:17;;;;;;;8.02;5.82;;;;;;;;;;2544947;23;20338;-94
2023/07/17 03:41:23;;;;;;;10.05;6.60;;;;;;;;;;2544754;23;19994;-94
2023/07/17 03:42:23;;;;;;;8.25;5.50;;;;;;;;;;2545507;23;19993;-94
2023/07/17 03:43:24;;;;;;;7.90;4.97;;;;;;;;;;2545440;23;20055;-93
2023/07/17 03:44:25;;;;;;;5.63;5.00;;;;;;;;;;2544577;23;20020;-94
2023/07/17 03:45:28;;;;;;;9.65;5.40;;;;;;;;;;2532834;23;20049;-94
2023/07/17 03:46:30;;;;;;;5.68;4.93;;;;;;;;;;2532789;23;20077;-94
2023/07/17 03:47:31;;;;;;;8.05;5.07;;;;;;;;;;2545002;23;20431;-94
2023/07/17 03:48:31;;;;;;;9.20;5.10;;;;;;;;;;2544915;23;19997;-95
2023/07/17 03:49:35;;;;;;;8.60;5.07;;;;;;;;;;2532289;23;20446;-94
2023/07/17 03:50:36;;;;;;;9.98;5.03;;;;;;;;;;2533111;23;20049;-94
2023/07/17 03:51:41;;;;;;;6.78;5.20;;;;;;;;;;2532601;23;20081;-95
2023/07/17 03:52:41;;;;;;;6.32;4.65;;;;;;;;;;2537396;23;20439;-95
2023/07/17 03:53:42;;;;;;;7.35;4.90;;;;;;;;;;2532226;23;20029;-94
2023/07/17 03:54:44;;;;;;;6.20;4.72;;;;;;;;;;2544778;23;19997;-95
2023/07/17 03:55:50;;;;;;;7.47;5.05;;;;;;;;;;2545215;23;20424;-94
2023/07/17 03:56:50;;;;;;;7.38;4.85;;;;;;;;;;2533930;23;20002;-93
2023/07/17 03:57:51;;;;;;;6.13;5.32;;;;;;;;;;2532815;23;19993;-95
2023/07/17 03:58:51;;;;;;;6.95;5.03;;;;;;;;;;2544719;23;20005;-94
2023/07/17 03:59:53;;;;;;;9.10;5.65;;;;;;;;;;2557117;23;19997;-94
2023/07/17 04:00:54;;;;;;;7.40;5.78;;;;;;;;;;2532795;23;20002;-95
2023/07/17 04:01:58;;;;;;;8.75;5.70;;;;;;;;;;2544867;23;20435;-94
2023/07/17 04:02:58;;;;;;;6.13;5.45;;;;;;;;;;2544628;23;20367;-95
2023/07/17 04:03:59;;;;;;;7.50;5.32;;;;;;;;;;2549526;23;19994;-94
2023/07/17 04:05:00;;;;;;;7.05;5.15;;;;;;;;;;2546598;23;20088;-95
2023/07/17 04:06:02;;;;;;;7.60;5.47;;;;;;;;;;2535076;23;20037;-93
2023/07/17 04:07:06;;;;;;;7.75;5.97;;;;;;;;;;2548300;23;19997;-93
2023/07/17 04:08:06;;;;;;;8.70;6.10;;;;;;;;;;2562519;23;20450;-94
2023/07/17 04:09:07;;;;;;;6.88;5.50;;;;;;;;;;2558438;23;20001;-94
2023/07/17 04:10:08;;;;;;;13.25;7.07;;;;;;;;;;2545793;23;20295;-94
2023/07/17 04:11:09;;;;;;;19.48;12.00;;;;;;;;;;2544289;23;20391;-95
2023/07/17 04:12:11;;;;;;;7.97;6.30;;;;;;;;;;2547052;23;20167;-95
2023/07/17 04:13:13;;;;;;;9.27;5.82;;;;;;;;;;2546909;23;20415;-95
2023/07/17 04:14:13;;;;;;;10.38;7.65;;;;;;;;;;2545859;23;20012;-95
2023/07/17 04:15:14;;;;;;;12.05;8.45;;;;;;;;;;2533082;23;20001;-94
2023/07/17 04:16:16;;;;;;;12.23;8.88;;;;;;;;;;2533381;23;19994;-95
2023/07/17 04:17:19;;;;;;;8.35;7.25;;;;;;;;;;2534261;23;20077;-94
2023/07/17 04:18:23;;;;;;;8.43;6.15;;;;;;;;;;2533801;23;20080;-96
2023/07/17 04:19:24;;;;;;;7.55;5.53;;;;;;;;;;2532790;23;20002;-96
2023/07/17 04:20:25;;;;;;;7.07;5.03;;;;;;;;;;2545161;23;20072;-95
2023/07/17 04:21:25;;;;;;;7.10;5.18;;;;;;;;;;2545333;23;20015;-94
2023/07/17 04:22:28;;;;;;;10.90;6.47;;;;;;;;;;2102126;23;10206473;-94
2023/07/17 04:23:29;;;;;;;11.27;6.30;;;;;;;;;;2533755;23;20001;-95
2023/07/17 04:24:29;;;;;;;8.07;5.68;;;;;;;;;;2545688;23;20098;-96
2023/07/17 04:25:37;;;;;;;8.93;5.45;;;;;;;;;;2549550;23;20032;-94
2023/07/17 04:26:41;;;;;;;6.00;5.28;;;;;;;;;;2557960;23;20430;-94
2023/07/17 04:27:48;;;;;;;10.70;5.60;;;;;;;;;;2545581;23;20348;-94
2023/07/17 04:28:49;;;;;;;7.78;4.72;;;;;;;;;;2538349;23;19994;-93
2023/07/17 04:29:52;;;;;;;6.35;4.82;;;;;;;;;;2549519;23;19997;-94
2023/07/17 04:30:54;;;;;;;6.32;5.30;;;;;;;;;;2545193;23;20079;-94
2023/07/17 04:31:57;;;;;;;7.60;5.18;;;;;;;;;;2533429;23;19997;-95
2023/07/17 04:32:58;;;;;;;7.45;5.53;;;;;;;;;;2545489;23;20037;-94
2023/07/17 04:34:03;;;;;;;12.73;5.13;;;;;;;;;;2545877;23;19997;-94
2023/07/17 04:35:07;;;;;;;8.05;5.30;;;;;;;;;;2562928;23;20073;-93
2023/07/17 04:36:11;;;;;;;8.40;5.55;;;;;;;;;;2547069;23;19994;-93
2023/07/17 04:37:21;;;;;;;;;;;;;;;;;;;;;
2023/07/17 04:38:25;;;;;;;8.68;6.70;;;;;;;;;;2539816;23;20077;-94
2023/07/17 04:39:25;;;;;;;5.97;5.03;;;;;;;;;;2545364;23;19993;-94
2023/07/17 04:40:31;;;;;;;7.82;5.15;;;;;;;;;;2533414;23;20030;-96
2023/07/17 04:41:31;;;;;;;9.65;4.88;;;;;;;;;;2534254;23;20089;-95
2023/07/17 04:42:34;;;;;;;6.47;5.05;;;;;;;;;;2533483;23;20427;-94
2023/07/17 04:43:45;;;;;;;7.28;4.95;;;;;;;;;;2545238;23;20075;-94
2023/07/17 04:44:48;;;;;;;9.32;4.50;;;;;;;;;;2549651;23;20431;-95
2023/07/17 04:46:02;;;;;;;6.32;4.50;;;;;;;;;;2533584;23;19998;-94
2023/07/17 04:47:05;;;;;;;5.75;4.20;;;;;;;;;;2540154;23;20001;-95
2023/07/17 04:48:21;;;;;;;6.63;4.57;;;;;;;;;;2545514;23;20008;-95
2023/07/17 04:49:23;;;;;;;5.55;4.05;;;;;;;;;;2544999;23;20000;-95
2023/07/17 04:50:26;;;;;;;6.47;4.57;;;;;;;;;;2533477;23;20018;-94
2023/07/17 04:51:40;;;;;;;;;;;;;;;;;;;;;
2023/07/17 04:52:54;;;;;;;4.53;4.10;;;;;;;;;;2552189;23;20031;-95
2023/07/17 04:54:05;;;;;;;5.93;4.38;;;;;;;;;;2552191;23;20012;-95
2023/07/17 04:55:12;;;;;;;9.07;4.63;;;;;;;;;;2116530;23;10001230;-96
2023/07/17 04:56:27;;;;;;;;;;;;;;;;;;;;;
2023/07/17 04:57:38;;;;;;;;;;;;;;;;;;;;;
2023/07/17 04:58:41;;;;;;;;;;;;;;;;;;2562957;23;20521;-95
2023/07/17 04:59:48;;;;;;;6.65;4.40;;;;;;;;;;2545569;23;19905;-95
2023/07/17 05:01:15;;;;;;;5.18;4.25;;;;;;;;;;2550910;23;20051;-95
2023/07/17 05:02:25;;;;;;;6.85;4.15;;;;;;;;;;2544499;23;20005;-96
2023/07/17 05:03:27;;;;;;;8.60;4.25;;;;;;;;;;2535031;23;19993;-96
2023/07/17 05:04:30;;;;;;;4.93;4.22;;;;;;;;;;2545821;23;20001;-95
2023/07/17 05:05:41;;;;;;;6.07;3.92;;;;;;;;;;2545049;23;20100;-96
2023/07/17 05:06:54;;;;;;;;;;;;;;;;;;;;;
2023/07/17 05:07:59;;;;;;;7.60;4.38;;;;;;;;;;2561581;23;20028;-95
2023/07/17 05:09:03;;;;;;;6.20;3.97;;;;;;;;;;2547732;23;20467;-95
2023/07/17 05:10:08;;;;;;;5.85;4.50;;;;;;;;;;2545756;23;20008;-94
2023/07/17 05:11:21;;;;;;;7.60;4.10;;;;;;;;;;2545042;23;19998;-95
2023/07/17 05:12:24;;;;;;;7.68;4.30;;;;;;;;;;2539391;23;20051;-95
2023/07/17 05:13:34;;;;;;;5.80;4.05;;;;;;;;;;2533329;23;20001;-94
2023/07/17 05:14:35;;;;;;;9.10;4.60;;;;;;;;;;2548461;23;19997;-95
2023/07/17 05:15:41;;;;;;;6.78;4.70;;;;;;;;;;2549395;23;20052;-95
2023/07/17 05:16:44;;;;;;;7.47;4.90;;;;;;;;;;2544628;23;20002;-95
2023/07/17 05:18:04;;;;;;;;;;;;;;;;;;;;;
2023/07/17 05:19:08;;;;;;;6.35;4.53;;;;;;;;;;2553589;23;20002;-96
2023/07/17 05:20:13;;;;;;;5.82;4.10;;;;;;;;;;2562540;23;20013;-95
2023/07/17 05:21:46;;;;;;;8.20;4.72;;;;;;;;;;2563390;23;19993;-94
2023/07/17 05:22:50;;;;;;;9.07;4.43;;;;;;;;;;2552627;23;20017;-94
2023/07/17 05:23:56;;;;;;;6.90;4.15;;;;;;;;;;2548222;23;20088;-94
2023/07/17 05:25:03;;;;;;;8.93;4.55;;;;;;;;;;2553631;23;19993;-96
2023/07/17 05:26:06;;;;;;;8.60;4.10;;;;;;;;;;2553382;23;19998;-95
2023/07/17 05:27:10;;;;;;;6.15;4.43;;;;;;;;;;2548397;23;19997;-95
2023/07/17 05:28:29;;;;;;;;;;;;;;;;;;;;;
2023/07/17 05:29:31;;;;;;;4.85;4.30;;;;;;;;;;2559333;23;20021;-94
2023/07/17 05:30:37;;;;;;;7.07;3.95;;;;;;;;;;2550960;23;20024;-95
2023/07/17 05:31:42;;;;;;;6.07;4.10;;;;;;;;;;2556843;23;20001;-95
2023/07/17 05:32:43;;;;;;;5.63;5.10;;;;;;;;;;2552134;23;20088;-93
2023/07/17 05:34:07;;;;;;;8.93;4.40;;;;;;;;;;2556873;23;20021;-94
2023/07/17 05:35:10;;;;;;;5.93;3.90;;;;;;;;;;2567046;23;20009;-94
2023/07/17 05:36:12;;;;;;;4.50;4.05;;;;;;;;;;2567455;23;19997;-95
2023/07/17 05:37:15;;;;;;;5.50;4.03;;;;;;;;;;2549279;23;20029;-95
2023/07/17 05:39:08;;;;;;;7.55;4.05;;;;;;;;;;2516357;23;20005;-95
2023/07/17 05:41:35;;;;;;;;;;;;;;;;;;;;;
2023/07/17 05:42:40;;;;;;;6.32;4.60;;;;;;;;;;2563455;23;20113;-95
2023/07/17 05:43:46;;;;;;;6.18;4.63;;;;;;;;;;2545367;23;20001;-96
2023/07/17 05:44:56;;;;;;;5.78;4.13;;;;;;;;;;2550279;23;20303;-95
2023/07/17 05:56:42;;;;;;;6.10;5.00;;;;;;;;;;2489244;23;20072;-96
2023/07/17 05:57:50;;;;;;;8.05;4.43;;;;;;;;;;2484550;23;20029;-96
2023/07/17 05:58:51;;;;;;;4.70;4.30;;;;;;;;;;2488646;23;20482;-96
2023/07/17 05:59:57;;;;;;;5.05;4.20;;;;;;;;;;2508348;23;20065;-96
2023/07/17 06:11:27;;;;;;;5.95;4.10;;;;;;;;;;2486313;23;20012;-96
2023/07/17 06:13:19;;;;;;;6.95;4.78;;;;;;;;;;2484819;23;20023;-96
2023/07/17 06:14:14;;;;;;;6.20;4.43;;;;;;;;;;2491806;23;20003;-96
2023/07/17 06:15:20;;;;;;;5.13;4.20;;;;;;;;;;2504862;23;20437;-95
2023/07/17 06:16:32;;;;;;;4.63;4.00;;;;;;;;;;2533435;23;19998;-96
2023/07/17 06:17:35;;;;;;;5.10;3.42;;;;;;;;;;2520318;23;20073;-96
2023/07/17 06:18:47;;;;;;;4.20;3.80;;;;;;;;;;2523089;23;19994;-95
2023/07/17 06:20:00;;;;;;;5.00;3.63;;;;;;;;;;2534915;23;20032;-95
2023/07/17 06:21:19;;;;;;;;;;;;;;;;;;;;;
2023/07/17 06:22:55;;;;;;;;;;;;;;;;;;;;;
2023/07/17 06:23:56;;;;;;;6.75;3.95;;;;;;;;;;2550090;23;20347;-95
2023/07/17 06:24:59;;;;;;;4.15;3.63;;;;;;;;;;2532937;23;20017;-94
2023/07/17 06:26:00;;;;;;;4.22;3.55;;;;;;;;;;2520931;23;19994;-96
2023/07/17 06:33:07;;;;;;;6.53;3.30;;;;;;;;;;2513670;23;20069;-95
2023/07/17 06:34:10;;;;;;;5.80;3.70;;;;;;;;;;2496725;23;20003;-96
2023/07/17 06:40:05;;;;;;;;;;;;;;;;;;;;;
2023/07/17 06:41:08;;;;;;;4.95;3.70;;;;;;;;;;2477083;24;20083;-96
2023/07/17 06:48:06;;;;;;;4.82;3.53;;;;;;;;;;2488537;23;20003;-96
2023/07/17 06:49:12;;;;;;;4.47;3.40;;;;;;;;;;2500844;23;20003;-96
2023/07/17 06:50:13;;;;;;;5.15;3.55;;;;;;;;;;2508116;23;20413;-95
2023/07/17 06:55:29;;;;;;;4.95;3.45;;;;;;;;;;2512234;23;20102;-95
2023/07/17 06:56:32;;;;;;;4.72;3.20;;;;;;;;;;2513651;23;19990;-96
2023/07/17 06:57:37;;;;;;;3.60;2.90;;;;;;;;;;2551253;23;19995;-96
2023/07/17 06:58:51;;;;;;;3.55;3.25;;;;;;;;;;2532951;23;20032;-95
2023/07/17 07:00:05;;;;;;;4.90;2.83;;;;;;;;;;2524287;23;20535;-95
2023/07/17 07:01:07;;;;;;;3.63;3.10;;;;;;;;;;2539586;23;20061;-94
2023/07/17 07:02:08;;;;;;;4.03;3.25;;;;;;;;;;2548751;23;19993;-95
2023/07/17 07:03:11;;;;;;;5.65;3.10;;;;;;;;;;2532339;23;20073;-96
2023/07/17 07:04:15;;;;;;;3.75;3.38;;;;;;;;;;2536564;23;20443;-95
2023/07/17 07:05:18;;;;;;;6.07;3.38;;;;;;;;;;2532590;23;20002;-96
2023/07/17 07:06:24;;;;;;;4.90;3.45;;;;;;;;;;2520514;23;19995;-96
2023/07/17 07:07:24;;;;;;;5.18;3.38;;;;;;;;;;2521623;23;20081;-96
2023/07/17 07:08:26;;;;;;;4.15;3.50;;;;;;;;;;2537970;23;19990;-95
2023/07/17 07:09:27;;;;;;;4.90;3.35;;;;;;;;;;2535430;23;19998;-94
2023/07/17 07:10:28;;;;;;;5.43;3.50;;;;;;;;;;2532764;23;19998;-94
2023/07/17 07:11:28;;;;;;;3.55;3.10;;;;;;;;;;2533496;23;19997;-95
2023/07/17 07:12:49;;;;;;;4.38;3.20;;;;;;;;;;2522519;23;20050;-95
2023/07/17 07:13:50;;;;;;;4.15;2.97;;;;;;;;;;2533712;23;20001;-94
2023/07/17 07:15:16;;;;;;;3.30;3.00;;;;;;;;;;2522763;23;20002;-95
2023/07/17 07:16:19;;;;;;;3.33;3.03;;;;;;;;;;2540614;23;19994;-94
2023/07/17 07:17:48;;;;;;;5.93;3.30;;;;;;;;;;2532135;23;20467;-96
2023/07/17 07:21:20;;;;;;;3.70;3.08;;;;;;;;;;2534466;23;19998;-95
2023/07/17 07:22:17;;;;;;;6.00;3.45;;;;;;;;;;2543171;23;20069;-95
2023/07/17 07:23:27;;;;;;;4.75;3.10;;;;;;;;;;2549499;23;20328;-95
2023/07/17 07:24:38;;;;;;;3.70;3.17;;;;;;;;;;2536307;23;20080;-96
2023/07/17 07:25:42;;;;;;;4.28;3.22;;;;;;;;;;2534371;23;20010;-96
2023/07/17 07:26:50;;;;;;;5.60;2.95;;;;;;;;;;2547217;23;20009;-95
2023/07/17 07:27:55;;;;;;;3.50;3.03;;;;;;;;;;2556683;23;20004;-95
2023/07/17 07:29:00;;;;;;;3.20;2.88;;;;;;;;;;2544478;23;19993;-96
2023/07/17 07:30:01;;;;;;;4.95;3.10;;;;;;;;;;2549908;23;20342;-94
2023/07/17 07:31:02;;;;;;;3.50;2.85;;;;;;;;;;2545413;23;19998;-96
2023/07/17 07:32:05;;;;;;;3.28;2.83;;;;;;;;;;2533234;23;20053;-96